Time;durP1;ratioP1;P1;durP2;ratioP2;P2;SDS_P1;SDS_P2;PMS_P1;PMS_P2;Temp;Humidity;BMP_temperature;BMP_pressure;BME280_temperature;BME280_humidity;BME280_pressure;Samples;Min_cycle;Max_cycle;Signal;HPM_P1;HPM_P2
2023/07/02 00:02:30;;;;;;;71.88;32.05;;;;;;;;;;8282490;28;20045;-89
2023/07/02 00:06:40;;;;;;;73.18;34.05;;;;;;;;;;8299519;28;20057;-87
2023/07/02 00:10:43;;;;;;;71.22;31.17;;;;;;;;;;8308012;28;20058;-90
2023/07/02 00:14:46;;;;;;;79.85;32.97;;;;;;;;;;8289763;28;20054;-91
2023/07/02 00:18:52;;;;;;;79.45;34.45;;;;;;;;;;8299547;28;20045;-90
2023/07/02 00:22:56;;;;;;;77.25;34.30;;;;;;;;;;8299389;28;20053;-88
2023/07/02 00:26:58;;;;;;;76.68;34.80;;;;;;;;;;8292302;28;20533;-88
2023/07/02 00:31:02;;;;;;;73.22;33.83;;;;;;;;;;8298845;28;20087;-88
2023/07/02 00:35:07;;;;;;;78.10;35.30;;;;;;;;;;8297265;28;20057;-89
2023/07/02 00:39:11;;;;;;;68.95;31.08;;;;;;;;;;8296401;28;20531;-89
2023/07/02 00:43:14;;;;;;;77.22;33.83;;;;;;;;;;8298590;28;20060;-88
2023/07/02 00:47:17;;;;;;;72.28;32.47;;;;;;;;;;8295261;28;20130;-89
2023/07/02 00:51:23;;;;;;;75.63;34.47;;;;;;;;;;8298681;28;20077;-88
2023/07/02 00:55:26;;;;;;;83.72;36.20;;;;;;;;;;8295015;28;20103;-89
2023/07/02 00:59:29;;;;;;;83.03;34.03;;;;;;;;;;8295197;28;20119;-88
2023/07/02 01:03:32;;;;;;;87.80;34.55;;;;;;;;;;8293499;28;20582;-87
2023/07/02 01:07:37;;;;;;;86.95;34.95;;;;;;;;;;8292920;28;20132;-88
2023/07/02 01:11:46;;;;;;;94.68;36.70;;;;;;;;;;8291891;28;20045;-89
2023/07/02 01:15:50;;;;;;;90.03;35.80;;;;;;;;;;8284696;28;20494;-89
2023/07/02 01:19:58;;;;;;;101.78;37.80;;;;;;;;;;8297283;28;20058;-88
2023/07/02 01:24:01;;;;;;;107.13;38.50;;;;;;;;;;8297186;28;20469;-89
2023/07/02 01:28:04;;;;;;;98.38;38.00;;;;;;;;;;8280129;28;20084;-88
2023/07/02 01:32:08;;;;;;;105.75;39.33;;;;;;;;;;8297154;28;20080;-88
2023/07/02 01:36:12;;;;;;;103.93;37.90;;;;;;;;;;8296856;28;20081;-88
2023/07/02 01:40:15;;;;;;;113.95;39.63;;;;;;;;;;8297114;28;20081;-89
2023/07/02 01:44:18;;;;;;;87.53;34.20;;;;;;;;;;8290395;28;20437;-89
2023/07/02 01:48:21;;;;;;;97.15;36.40;;;;;;;;;;8296999;28;20082;-89
2023/07/02 01:52:25;;;;;;;94.40;36.30;;;;;;;;;;8296793;28;20076;-89
2023/07/02 01:56:28;;;;;;;96.22;37.38;;;;;;;;;;8296966;28;20054;-89
2023/07/02 02:00:31;;;;;;;97.50;37.90;;;;;;;;;;8296614;28;20070;-89
2023/07/02 02:04:34;;;;;;;110.68;38.85;;;;;;;;;;8296382;28;20132;-90
2023/07/02 02:08:38;;;;;;;95.80;37.22;;;;;;;;;;8295918;28;20520;-89
2023/07/02 02:12:41;;;;;;;90.53;36.33;;;;;;;;;;8295654;28;20049;-90
2023/07/02 02:16:46;;;;;;;84.03;35.20;;;;;;;;;;8296513;28;20064;-89
2023/07/02 02:20:49;;;;;;;87.15;35.22;;;;;;;;;;8296149;28;20066;-90
2023/07/02 02:24:53;;;;;;;91.05;36.20;;;;;;;;;;8296818;28;20379;-89
2023/07/02 02:28:56;;;;;;;87.20;36.47;;;;;;;;;;8296240;28;20060;-91
2023/07/02 02:32:59;;;;;;;77.88;33.58;;;;;;;;;;8295961;28;20129;-90
2023/07/02 02:37:02;;;;;;;69.82;32.38;;;;;;;;;;8296412;28;20498;-89
2023/07/02 02:41:08;;;;;;;71.72;34.95;;;;;;;;;;8289093;28;20046;-89
2023/07/02 02:45:11;;;;;;;68.30;33.40;;;;;;;;;;8296363;28;20068;-89
2023/07/02 02:49:13;;;;;;;69.63;33.08;;;;;;;;;;8275961;28;20042;-89
2023/07/02 02:53:16;;;;;;;63.55;31.30;;;;;;;;;;8295914;28;20074;-90
2023/07/02 02:57:20;;;;;;;60.80;30.95;;;;;;;;;;8293459;28;20129;-89
2023/07/02 03:01:23;;;;;;;56.90;30.83;;;;;;;;;;8288637;28;20057;-90
2023/07/02 03:05:27;;;;;;;51.75;30.77;;;;;;;;;;8295703;28;20467;-89
2023/07/02 03:09:30;;;;;;;51.35;27.80;;;;;;;;;;8294817;28;20562;-88
2023/07/02 03:13:34;;;;;;;52.53;30.88;;;;;;;;;;8295630;28;20121;-89
2023/07/02 03:17:39;;;;;;;47.85;28.08;;;;;;;;;;8296247;28;20132;-89
2023/07/02 03:21:43;;;;;;;45.08;27.73;;;;;;;;;;8301095;28;20085;-90
2023/07/02 03:25:46;;;;;;;54.83;35.80;;;;;;;;;;8301272;28;20049;-89
2023/07/02 03:29:50;;;;;;;50.17;35.05;;;;;;;;;;8291180;28;20113;-88
2023/07/02 03:33:53;;;;;;;59.60;39.90;;;;;;;;;;8294600;28;20132;-89
2023/07/02 03:37:57;;;;;;;42.10;28.83;;;;;;;;;;8301209;28;20053;-89
2023/07/02 03:42:00;;;;;;;36.67;26.17;;;;;;;;;;8305869;28;20049;-90
2023/07/02 03:46:04;;;;;;;45.33;30.48;;;;;;;;;;8288641;28;20100;-89
2023/07/02 03:50:08;;;;;;;41.53;27.15;;;;;;;;;;8300495;28;20054;-89
2023/07/02 03:54:11;;;;;;;45.25;27.20;;;;;;;;;;8300286;28;20141;-90
2023/07/02 03:58:14;;;;;;;43.72;26.52;;;;;;;;;;8300280;28;20136;-90
2023/07/02 04:02:18;;;;;;;30.63;21.40;;;;;;;;;;8300231;28;20054;-90
2023/07/02 04:06:21;;;;;;;47.38;25.70;;;;;;;;;;8299997;28;20487;-90
2023/07/02 04:10:24;;;;;;;30.27;22.55;;;;;;;;;;8299747;28;20066;-90
2023/07/02 04:14:27;;;;;;;36.78;23.13;;;;;;;;;;8299519;28;20450;-89
2023/07/02 04:18:32;;;;;;;43.97;26.27;;;;;;;;;;8309678;28;20200;-90
2023/07/02 04:22:35;;;;;;;33.08;20.25;;;;;;;;;;8299826;28;20056;-90
2023/07/02 04:26:38;;;;;;;29.88;18.42;;;;;;;;;;8276809;28;20137;-90
2023/07/02 04:30:42;;;;;;;27.88;18.17;;;;;;;;;;8298959;28;20585;-90
2023/07/02 04:34:46;;;;;;;24.17;17.05;;;;;;;;;;8300904;28;20058;-91
2023/07/02 04:38:49;;;;;;;26.35;16.55;;;;;;;;;;8298520;28;20482;-91
2023/07/02 04:42:57;;;;;;;25.75;16.70;;;;;;;;;;8299114;28;20481;-90
2023/07/02 04:47:01;;;;;;;23.33;15.13;;;;;;;;;;8298011;28;20056;-91
2023/07/02 04:51:06;;;;;;;24.90;15.70;;;;;;;;;;8296337;28;20058;-92
2023/07/02 04:55:09;;;;;;;21.42;14.23;;;;;;;;;;8297252;28;20478;-92
2023/07/02 04:59:12;;;;;;;20.63;14.50;;;;;;;;;;8281936;28;20108;-91
2023/07/02 05:03:15;;;;;;;25.25;15.43;;;;;;;;;;8298779;28;20056;-92
2023/07/02 05:07:19;;;;;;;20.50;13.93;;;;;;;;;;8296106;28;20090;-91
2023/07/02 05:11:22;;;;;;;19.05;13.50;;;;;;;;;;8306126;28;20136;-91
2023/07/02 05:15:26;;;;;;;23.02;13.70;;;;;;;;;;8298287;28;20527;-90
2023/07/02 05:19:29;;;;;;;14.77;11.55;;;;;;;;;;8288558;28;20140;-91
2023/07/02 05:23:36;;;;;;;20.02;13.07;;;;;;;;;;8297208;28;20081;-88
2023/07/02 05:27:39;;;;;;;17.05;11.90;;;;;;;;;;8298419;28;20081;-93
2023/07/02 05:31:42;;;;;;;15.95;11.00;;;;;;;;;;8290557;28;20132;-92
2023/07/02 05:35:45;;;;;;;17.60;9.90;;;;;;;;;;8285529;28;20216;-92
2023/07/02 05:39:50;;;;;;;16.55;11.15;;;;;;;;;;8294764;28;20053;-91
2023/07/02 05:43:53;;;;;;;15.23;10.95;;;;;;;;;;8296877;28;20088;-92
2023/07/02 05:47:56;;;;;;;19.02;11.10;;;;;;;;;;8287993;28;20073;-93
2023/07/02 05:51:59;;;;;;;13.93;11.02;;;;;;;;;;8297247;28;20124;-93
2023/07/02 05:56:04;;;;;;;17.95;11.43;;;;;;;;;;8288674;28;20058;-88
2023/07/02 06:00:08;;;;;;;16.55;11.48;;;;;;;;;;8294313;28;20054;-89
2023/07/02 06:04:11;;;;;;;16.75;11.27;;;;;;;;;;8293137;28;20049;-87
2023/07/02 06:08:16;;;;;;;14.07;10.73;;;;;;;;;;8296377;28;20513;-87
2023/07/02 06:12:24;;;;;;;17.40;11.30;;;;;;;;;;8298857;28;20128;-90
2023/07/02 06:16:29;;;;;;;17.15;11.30;;;;;;;;;;8292160;28;20050;-91
2023/07/02 06:20:33;;;;;;;17.08;11.25;;;;;;;;;;8293605;28;20086;-93
2023/07/02 06:24:38;;;;;;;16.38;10.77;;;;;;;;;;8287897;28;20085;-92
2023/07/02 06:28:43;;;;;;;17.48;9.85;;;;;;;;;;8285022;28;20505;-91
2023/07/02 06:32:46;;;;;;;18.42;8.82;;;;;;;;;;8284409;28;20050;-92
2023/07/02 06:36:51;;;;;;;16.48;9.90;;;;;;;;;;8280482;28;20505;-91
2023/07/02 06:40:54;;;;;;;11.77;8.57;;;;;;;;;;8277696;28;20051;-92
2023/07/02 06:45:00;;;;;;;14.48;8.68;;;;;;;;;;8295103;28;20053;-90
2023/07/02 06:49:36;;;;;;;13.13;8.18;;;;;;;;;;8302603;28;20076;-95
2023/07/02 06:53:53;;;;;;;11.10;8.05;;;;;;;;;;8155152;29;20554;-96
2023/07/02 07:02:56;;;;;;;11.68;7.43;;;;;;;;;;8204630;28;20054;-95
2023/07/02 07:07:00;;;;;;;11.48;7.57;;;;;;;;;;8293836;28;20498;-94
2023/07/02 07:11:02;;;;;;;13.10;7.45;;;;;;;;;;8293225;28;20116;-95
2023/07/02 07:15:06;;;;;;;13.00;7.03;;;;;;;;;;8314445;28;20062;-87
2023/07/02 07:19:18;;;;;;;13.13;6.35;;;;;;;;;;8305375;28;20053;-93
2023/07/02 07:23:21;;;;;;;8.77;6.70;;;;;;;;;;8282220;28;20050;-93
2023/07/02 07:27:27;;;;;;;10.15;6.35;;;;;;;;;;8307272;28;20061;-95
2023/07/02 07:31:31;;;;;;;10.38;6.88;;;;;;;;;;8303673;28;20503;-94
2023/07/02 07:35:36;;;;;;;9.55;6.40;;;;;;;;;;8300408;28;20061;-95
2023/07/02 07:39:39;;;;;;;9.13;6.18;;;;;;;;;;8313879;28;20057;-94
2023/07/02 07:43:43;;;;;;;10.40;6.47;;;;;;;;;;8291106;28;20077;-94
2023/07/02 07:47:46;;;;;;;9.90;5.43;;;;;;;;;;8304582;28;20054;-95
2023/07/02 07:51:52;;;;;;;9.50;5.80;;;;;;;;;;8295694;28;20061;-93
2023/07/02 07:55:57;;;;;;;13.50;6.53;;;;;;;;;;8297253;28;20065;-94
2023/07/02 08:00:02;;;;;;;12.48;6.15;;;;;;;;;;8285417;28;20097;-93
2023/07/02 08:04:05;;;;;;;9.48;6.30;;;;;;;;;;8302864;28;20666;-94
2023/07/02 08:08:12;;;;;;;10.93;6.18;;;;;;;;;;8303704;28;20046;-87
2023/07/02 08:12:39;;;;;;;11.10;6.60;;;;;;;;;;8313021;28;20143;-96
2023/07/02 08:17:03;;;;;;;9.10;5.78;;;;;;;;;;8298073;28;20061;-94
2023/07/02 08:21:09;;;;;;;9.93;5.60;;;;;;;;;;8304075;28;20069;-92
2023/07/02 08:25:14;;;;;;;9.18;5.50;;;;;;;;;;8304800;28;20092;-93
2023/07/02 08:29:21;;;;;;;10.05;6.22;;;;;;;;;;8305258;28;20054;-95
2023/07/02 08:33:25;;;;;;;8.23;5.15;;;;;;;;;;8307661;28;20112;-93
2023/07/02 08:37:33;;;;;;;10.13;6.78;;;;;;;;;;8304192;28;20132;-92
2023/07/02 08:41:46;;;;;;;11.57;6.90;;;;;;;;;;8305121;28;20061;-93
2023/07/02 08:45:52;;;;;;;8.55;4.95;;;;;;;;;;8313044;28;20082;-95
2023/07/02 08:50:00;;;;;;;11.55;6.43;;;;;;;;;;8308075;28;20082;-94
2023/07/02 08:54:05;;;;;;;6.43;3.70;;;;;;;;;;8288797;28;20053;-94
2023/07/02 08:58:10;;;;;;;5.95;3.85;;;;;;;;;;8307603;28;20050;-94
2023/07/02 09:02:13;;;;;;;8.63;3.58;;;;;;;;;;8282057;28;20060;-95
2023/07/02 09:07:00;;;;;;;9.07;5.15;;;;;;;;;;8314093;28;20046;-96
2023/07/02 09:11:08;;;;;;;7.72;4.82;;;;;;;;;;8283263;28;20137;-94
2023/07/02 09:15:15;;;;;;;6.60;4.47;;;;;;;;;;8282738;28;20061;-94
2023/07/02 09:19:19;;;;;;;8.20;5.03;;;;;;;;;;8303627;28;20108;-93
2023/07/02 09:23:23;;;;;;;6.22;3.65;;;;;;;;;;8303645;28;20083;-96
2023/07/02 09:27:36;;;;;;;5.60;2.92;;;;;;;;;;8292612;28;20092;-95
2023/07/02 09:31:48;;;;;;;5.25;3.25;;;;;;;;;;8307855;28;20050;-94
2023/07/02 09:35:55;;;;;;;5.07;3.03;;;;;;;;;;8295516;28;20054;-95
2023/07/02 09:40:05;;;;;;;5.85;3.88;;;;;;;;;;8285355;28;20058;-95
2023/07/02 09:44:11;;;;;;;4.22;2.88;;;;;;;;;;8289998;28;20060;-95
2023/07/02 09:48:18;;;;;;;13.45;8.63;;;;;;;;;;8285779;28;20049;-94
2023/07/02 09:52:27;;;;;;;8.93;5.75;;;;;;;;;;8287703;28;20050;-95
2023/07/02 09:56:37;;;;;;;9.02;4.88;;;;;;;;;;8298633;28;20073;-95
2023/07/02 10:00:43;;;;;;;5.35;3.70;;;;;;;;;;8187252;29;20075;-94
2023/07/02 10:04:54;;;;;;;7.63;3.60;;;;;;;;;;8174605;29;20547;-94
2023/07/02 10:08:57;;;;;;;12.02;7.60;;;;;;;;;;8179927;29;20064;-94
2023/07/02 10:13:02;;;;;;;11.43;8.45;;;;;;;;;;8164339;29;20452;-93
2023/07/02 10:17:07;;;;;;;5.78;4.35;;;;;;;;;;8172265;29;20059;-93
2023/07/02 10:21:19;;;;;;;13.07;9.48;;;;;;;;;;8165791;29;20056;-93
2023/07/02 10:25:28;;;;;;;17.23;12.50;;;;;;;;;;8166660;29;20090;-94
2023/07/02 10:29:33;;;;;;;5.80;3.92;;;;;;;;;;8192719;28;20141;-92
2023/07/02 10:33:44;;;;;;;8.38;6.22;;;;;;;;;;8283535;28;20532;-92
2023/07/02 10:37:53;;;;;;;6.32;3.90;;;;;;;;;;8271566;28;20069;-93
2023/07/02 10:42:05;;;;;;;6.35;3.85;;;;;;;;;;8283907;28;20127;-95
2023/07/02 10:46:19;;;;;;;4.13;3.00;;;;;;;;;;8273280;28;20062;-93
2023/07/02 10:50:23;;;;;;;4.15;3.00;;;;;;;;;;8272047;28;20077;-94
2023/07/02 10:54:40;;;;;;;4.28;2.70;;;;;;;;;;8268606;28;20055;-95
2023/07/02 10:58:44;;;;;;;11.63;8.27;;;;;;;;;;8253299;28;20058;-94
2023/07/02 11:02:47;;;;;;;4.45;3.60;;;;;;;;;;8271819;28;20078;-96
2023/07/02 11:06:50;;;;;;;2.95;2.20;;;;;;;;;;8267333;28;20787;-95
2023/07/02 11:11:11;;;;;;;4.28;2.33;;;;;;;;;;8299984;28;20057;-96
2023/07/02 11:15:17;;;;;;;3.70;3.10;;;;;;;;;;8294008;28;20061;-96
2023/07/02 11:19:20;;;;;;;6.65;5.65;;;;;;;;;;8303095;28;20214;-96
2023/07/02 11:23:25;;;;;;;6.30;3.33;;;;;;;;;;8277785;28;20057;-94
2023/07/02 11:27:31;;;;;;;2.40;1.90;;;;;;;;;;8296235;28;20062;-90
2023/07/02 11:31:33;;;;;;;12.98;8.55;;;;;;;;;;8360471;23;20061;-90
2023/07/02 11:35:36;;;;;;;4.25;2.35;;;;;;;;;;8263037;28;20136;-95
2023/07/02 11:39:39;;;;;;;3.15;2.15;;;;;;;;;;8268655;28;20425;-86
2023/07/02 11:43:44;;;;;;;5.57;2.83;;;;;;;;;;8267226;28;20133;-91
2023/07/02 11:47:47;;;;;;;4.90;3.67;;;;;;;;;;8267681;28;20137;-85
2023/07/02 11:51:51;;;;;;;4.55;2.95;;;;;;;;;;8268143;28;20058;-90
2023/07/02 11:55:54;;;;;;;13.05;10.50;;;;;;;;;;8267210;28;20155;-93
2023/07/02 12:00:00;;;;;;;4.00;2.30;;;;;;;;;;8265550;28;20084;-92
2023/07/02 12:04:05;;;;;;;4.75;2.53;;;;;;;;;;8260338;28;20089;-92
2023/07/02 12:08:09;;;;;;;5.95;3.55;;;;;;;;;;8268171;28;20051;-82
2023/07/02 12:12:12;;;;;;;6.50;3.30;;;;;;;;;;8296143;28;20077;-91
2023/07/02 12:16:23;;;;;;;2.20;1.83;;;;;;;;;;8291901;28;20062;-96
2023/07/02 12:20:30;;;;;;;2.65;1.80;;;;;;;;;;8290588;28;20472;-94
2023/07/02 12:24:38;;;;;;;4.88;2.20;;;;;;;;;;8292799;28;20069;-96
2023/07/02 12:28:40;;;;;;;4.03;2.15;;;;;;;;;;8291676;28;20046;-95
2023/07/02 12:32:46;;;;;;;5.28;2.50;;;;;;;;;;8298776;28;20065;-96
2023/07/02 12:36:57;;;;;;;4.22;2.60;;;;;;;;;;8280050;28;20054;-96
2023/07/02 12:41:10;;;;;;;6.13;4.68;;;;;;;;;;8277641;28;20054;-94
2023/07/02 12:45:14;;;;;;;2.83;2.00;;;;;;;;;;8281375;28;20053;-95
2023/07/02 12:49:19;;;;;;;4.13;2.17;;;;;;;;;;8270827;28;20402;-93
2023/07/02 12:53:23;;;;;;;2.05;1.70;;;;;;;;;;8283916;28;20153;-89
2023/07/02 12:57:40;;;;;;;3.60;2.25;;;;;;;;;;8295821;28;20050;-95
2023/07/02 13:01:47;;;;;;;3.42;2.10;;;;;;;;;;8277837;28;20066;-93
2023/07/02 13:05:53;;;;;;;2.67;1.73;;;;;;;;;;8286410;28;20054;-96
2023/07/02 13:09:58;;;;;;;2.95;1.70;;;;;;;;;;8282313;28;20083;-95
2023/07/02 13:14:05;;;;;;;3.35;1.92;;;;;;;;;;8268663;28;20066;-94
2023/07/02 13:18:10;;;;;;;1.90;1.80;;;;;;;;;;8276375;28;20192;-95
2023/07/02 13:22:16;;;;;;;2.55;1.70;;;;;;;;;;8269646;28;20058;-79
2023/07/02 13:26:21;;;;;;;2.85;1.80;;;;;;;;;;8267702;28;20510;-94
2023/07/02 13:30:27;;;;;;;3.00;1.88;;;;;;;;;;8269203;28;20065;-92
2023/07/02 13:34:30;;;;;;;3.65;2.00;;;;;;;;;;8270031;28;20058;-90
2023/07/02 13:38:36;;;;;;;7.15;2.80;;;;;;;;;;8263233;28;20061;-94
2023/07/02 13:42:42;;;;;;;9.95;3.70;;;;;;;;;;8263822;28;20054;-94
2023/07/02 13:46:47;;;;;;;10.50;3.78;;;;;;;;;;8268642;28;20410;-95
2023/07/02 13:50:50;;;;;;;10.45;4.35;;;;;;;;;;8262207;28;20058;-93
2023/07/02 13:54:55;;;;;;;11.02;4.35;;;;;;;;;;8227698;28;20450;-93
2023/07/02 13:59:06;;;;;;;10.40;3.33;;;;;;;;;;8267453;28;20085;-94
2023/07/02 14:03:09;;;;;;;8.17;3.47;;;;;;;;;;8266629;28;20104;-93
2023/07/02 14:07:14;;;;;;;4.10;2.50;;;;;;;;;;8248519;28;20042;-93
2023/07/02 14:11:18;;;;;;;4.50;2.60;;;;;;;;;;8259502;28;20561;-88
2023/07/02 14:15:25;;;;;;;3.08;2.30;;;;;;;;;;8254404;28;20125;-94
2023/07/02 14:19:29;;;;;;;2.67;1.80;;;;;;;;;;8253025;28;20413;-92
2023/07/02 14:23:33;;;;;;;5.10;2.00;;;;;;;;;;8266881;28;20092;-94
2023/07/02 14:27:37;;;;;;;5.85;1.90;;;;;;;;;;8239661;28;20046;-94
2023/07/02 14:31:47;;;;;;;2.95;1.80;;;;;;;;;;8260982;28;20077;-94
2023/07/02 14:35:54;;;;;;;3.42;2.00;;;;;;;;;;8252964;28;20085;-91
2023/07/02 14:39:58;;;;;;;2.17;1.70;;;;;;;;;;8254783;28;20055;-94
2023/07/02 14:44:06;;;;;;;2.50;1.77;;;;;;;;;;8261560;28;20052;-93
2023/07/02 14:48:12;;;;;;;1.67;1.52;;;;;;;;;;8242543;28;20134;-95
2023/07/02 14:52:15;;;;;;;4.57;1.60;;;;;;;;;;8251484;28;20058;-96
2023/07/02 14:56:18;;;;;;;2.60;1.70;;;;;;;;;;8257024;28;20051;-94
2023/07/02 15:00:26;;;;;;;2.08;1.80;;;;;;;;;;8258676;28;20078;-95
2023/07/02 15:04:38;;;;;;;2.70;1.60;;;;;;;;;;8260446;28;20116;-96
2023/07/02 15:08:47;;;;;;;3.08;1.70;;;;;;;;;;8258327;28;20050;-96
2023/07/02 15:12:55;;;;;;;3.25;1.80;;;;;;;;;;8247137;28;20065;-87
2023/07/02 15:17:10;;;;;;;2.33;1.70;;;;;;;;;;8260327;28;20070;-94
2023/07/02 15:21:30;;;;;;;3.13;1.70;;;;;;;;;;8261852;28;20054;-96
2023/07/02 15:25:33;;;;;;;2.05;1.70;;;;;;;;;;8243063;28;20035;-93
2023/07/02 15:29:39;;;;;;;2.00;1.80;;;;;;;;;;8248951;28;20509;-90
2023/07/02 15:33:44;;;;;;;3.40;1.70;;;;;;;;;;8249185;28;20094;-87
2023/07/02 15:37:48;;;;;;;4.00;2.38;;;;;;;;;;8240904;28;20488;-87
2023/07/02 15:41:52;;;;;;;3.75;2.03;;;;;;;;;;8249623;28;20141;-91
2023/07/02 15:45:58;;;;;;;2.78;2.10;;;;;;;;;;8255521;28;20065;-83
2023/07/02 15:50:02;;;;;;;6.20;2.20;;;;;;;;;;8246461;28;20060;-92
2023/07/02 15:54:07;;;;;;;2.55;2.22;;;;;;;;;;8255280;28;20050;-94
2023/07/02 15:58:13;;;;;;;5.07;2.13;;;;;;;;;;8244861;28;20553;-86
2023/07/02 16:02:17;;;;;;;3.65;2.20;;;;;;;;;;8258734;28;20501;-92
2023/07/02 16:06:20;;;;;;;3.53;1.98;;;;;;;;;;8253196;28;20161;-93
2023/07/02 16:10:24;;;;;;;7.80;3.53;;;;;;;;;;8251394;28;20093;-95
2023/07/02 16:14:27;;;;;;;7.22;3.00;;;;;;;;;;8248108;28;20497;-94
2023/07/02 16:18:31;;;;;;;12.68;3.65;;;;;;;;;;8252774;28;20054;-93
2023/07/02 16:22:34;;;;;;;10.65;3.08;;;;;;;;;;8227170;28;20089;-93
2023/07/02 16:26:38;;;;;;;11.90;2.72;;;;;;;;;;8262391;28;20054;-91
2023/07/02 16:30:41;;;;;;;6.45;2.63;;;;;;;;;;8256780;28;20062;-93
2023/07/02 16:34:46;;;;;;;3.45;2.40;;;;;;;;;;8241347;28;20121;-94
2023/07/02 16:38:50;;;;;;;10.07;2.78;;;;;;;;;;8258700;28;20061;-85
2023/07/02 16:42:55;;;;;;;7.13;3.17;;;;;;;;;;8256242;28;20053;-84
2023/07/02 16:46:59;;;;;;;6.63;3.00;;;;;;;;;;8247972;28;20082;-82
2023/07/02 16:51:04;;;;;;;8.60;3.70;;;;;;;;;;8260171;28;20553;-85
2023/07/02 16:55:16;;;;;;;6.78;2.55;;;;;;;;;;8252770;28;20054;-91
2023/07/02 16:59:23;;;;;;;6.85;2.70;;;;;;;;;;8232513;28;20055;-91
2023/07/02 17:03:30;;;;;;;5.22;2.70;;;;;;;;;;8252207;28;20474;-89
2023/07/02 17:07:36;;;;;;;4.28;2.47;;;;;;;;;;8249900;28;20062;-81
2023/07/02 17:11:41;;;;;;;4.43;2.60;;;;;;;;;;8245856;28;20050;-82
2023/07/02 17:15:46;;;;;;;6.18;3.13;;;;;;;;;;8258465;28;20529;-92
2023/07/02 17:19:51;;;;;;;4.72;2.80;;;;;;;;;;8248526;28;20054;-88
2023/07/02 17:23:54;;;;;;;3.70;2.72;;;;;;;;;;8245333;28;20073;-93
2023/07/02 17:27:58;;;;;;;4.85;2.83;;;;;;;;;;8248502;28;20051;-91
2023/07/02 17:32:06;;;;;;;3.85;2.90;;;;;;;;;;8251521;28;20399;-93
2023/07/02 17:36:09;;;;;;;4.97;3.28;;;;;;;;;;8246430;28;20055;-89
2023/07/02 17:40:13;;;;;;;4.32;3.10;;;;;;;;;;8264148;28;20082;-83
2023/07/02 17:44:26;;;;;;;6.25;2.70;;;;;;;;;;8256250;28;20050;-81
2023/07/02 17:48:42;;;;;;;4.28;3.15;;;;;;;;;;8256509;28;20053;-81
2023/07/02 17:52:52;;;;;;;5.43;2.90;;;;;;;;;;8255290;28;20046;-91
2023/07/02 17:56:56;;;;;;;3.30;2.60;;;;;;;;;;8257111;28;20082;-88
2023/07/02 18:01:01;;;;;;;4.57;3.20;;;;;;;;;;8245438;28;20062;-82
2023/07/02 18:05:08;;;;;;;5.00;3.15;;;;;;;;;;8242721;28;20051;-91
2023/07/02 18:09:13;;;;;;;9.70;5.28;;;;;;;;;;8249495;28;20054;-89
2023/07/02 18:13:21;;;;;;;10.43;3.88;;;;;;;;;;8260810;28;20054;-91
2023/07/02 18:17:25;;;;;;;7.45;3.55;;;;;;;;;;8263023;28;20054;-82
2023/07/02 18:21:31;;;;;;;8.95;4.40;;;;;;;;;;8264988;28;20050;-88
2023/07/02 18:25:36;;;;;;;5.22;3.42;;;;;;;;;;8251582;28;20047;-82
2023/07/02 18:29:45;;;;;;;5.97;3.50;;;;;;;;;;8263673;28;20058;-81
2023/07/02 18:33:51;;;;;;;4.47;3.40;;;;;;;;;;8252894;28;20051;-83
2023/07/02 18:37:56;;;;;;;6.05;3.80;;;;;;;;;;8264292;28;20061;-82
2023/07/02 18:42:03;;;;;;;7.57;4.43;;;;;;;;;;8264545;28;20062;-91
2023/07/02 18:46:11;;;;;;;6.50;4.75;;;;;;;;;;8235772;28;20058;-84
2023/07/02 18:50:15;;;;;;;9.55;6.65;;;;;;;;;;8269581;28;20054;-89
2023/07/02 18:54:20;;;;;;;6.75;5.57;;;;;;;;;;8266924;28;20101;-91
2023/07/02 18:58:28;;;;;;;7.00;4.97;;;;;;;;;;8266397;28;20530;-91
2023/07/02 19:02:35;;;;;;;7.20;5.07;;;;;;;;;;8264709;28;20062;-91
2023/07/02 19:06:40;;;;;;;6.70;5.00;;;;;;;;;;8241110;28;20536;-81
2023/07/02 19:11:01;;;;;;;6.90;4.65;;;;;;;;;;8261411;28;20121;-87
2023/07/02 19:15:07;;;;;;;6.57;5.63;;;;;;;;;;8257434;28;20510;-82
2023/07/02 19:19:12;;;;;;;14.00;5.93;;;;;;;;;;8270420;28;20062;-81
2023/07/02 19:23:18;;;;;;;11.23;6.60;;;;;;;;;;8270354;28;20517;-90
2023/07/02 19:27:25;;;;;;;8.02;6.47;;;;;;;;;;8257119;28;20063;-92
2023/07/02 19:31:34;;;;;;;9.70;7.57;;;;;;;;;;8258145;28;20100;-87
2023/07/02 19:35:47;;;;;;;10.73;8.18;;;;;;;;;;8267709;28;20062;-91
2023/07/02 19:39:51;;;;;;;12.35;8.13;;;;;;;;;;8260204;28;20133;-83
2023/07/02 19:44:02;;;;;;;11.80;8.18;;;;;;;;;;8270099;28;20513;-82
2023/07/02 19:48:09;;;;;;;9.50;7.70;;;;;;;;;;8270087;28;20089;-91
2023/07/02 19:52:14;;;;;;;11.60;7.65;;;;;;;;;;8262827;28;20058;-92
2023/07/02 19:56:18;;;;;;;10.65;7.63;;;;;;;;;;8257546;28;20065;-90
2023/07/02 20:00:24;;;;;;;10.63;6.70;;;;;;;;;;8256167;28;20054;-91
2023/07/02 20:04:29;;;;;;;8.00;6.65;;;;;;;;;;8256852;28;20069;-92
2023/07/02 20:08:34;;;;;;;11.13;7.63;;;;;;;;;;8262681;28;20055;-91
2023/07/02 20:12:38;;;;;;;10.23;8.07;;;;;;;;;;8265093;28;20065;-90
2023/07/02 20:16:44;;;;;;;11.57;7.68;;;;;;;;;;8269730;28;20069;-92
2023/07/02 20:20:52;;;;;;;10.02;7.57;;;;;;;;;;8269517;28;20137;-90
2023/07/02 20:24:56;;;;;;;9.73;7.13;;;;;;;;;;8269545;28;20121;-91
2023/07/02 20:29:01;;;;;;;10.00;8.02;;;;;;;;;;8269349;28;20054;-89
2023/07/02 20:33:07;;;;;;;11.25;7.88;;;;;;;;;;8259119;28;20106;-91
2023/07/02 20:37:13;;;;;;;10.40;7.90;;;;;;;;;;8266670;28;20089;-91
2023/07/02 20:41:17;;;;;;;9.52;7.40;;;;;;;;;;8258478;28;20190;-92
2023/07/02 20:45:23;;;;;;;9.50;7.30;;;;;;;;;;8254166;28;20055;-91
2023/07/02 20:49:29;;;;;;;12.00;7.72;;;;;;;;;;8255581;28;20062;-91
2023/07/02 20:53:32;;;;;;;9.77;7.05;;;;;;;;;;8268489;28;20047;-92
2023/07/02 20:57:36;;;;;;;11.25;7.72;;;;;;;;;;8268654;28;20058;-91
2023/07/02 21:01:39;;;;;;;10.60;7.18;;;;;;;;;;8268941;28;20057;-92
2023/07/02 21:05:43;;;;;;;10.05;7.32;;;;;;;;;;8247065;28;20065;-91
2023/07/02 21:09:46;;;;;;;10.93;7.35;;;;;;;;;;8235993;28;20518;-89
2023/07/02 21:13:49;;;;;;;10.63;7.55;;;;;;;;;;8258219;28;20054;-88
2023/07/02 21:17:52;;;;;;;11.77;7.25;;;;;;;;;;8267831;28;20049;-90
2023/07/02 21:21:57;;;;;;;10.45;7.82;;;;;;;;;;8268006;28;20162;-91
2023/07/02 21:26:02;;;;;;;11.50;7.65;;;;;;;;;;8268062;28;20062;-92
2023/07/02 21:30:06;;;;;;;12.90;8.20;;;;;;;;;;8267570;28;20137;-92
2023/07/02 21:34:09;;;;;;;10.90;7.85;;;;;;;;;;8254897;28;20061;-91
2023/07/02 21:38:14;;;;;;;16.52;8.52;;;;;;;;;;8257837;28;20578;-92
2023/07/02 21:42:17;;;;;;;11.30;8.55;;;;;;;;;;8262743;28;20065;-91
2023/07/02 21:46:20;;;;;;;18.05;10.73;;;;;;;;;;8256760;28;20469;-89
2023/07/02 21:50:22;;;;;;;16.42;9.82;;;;;;;;;;8266999;28;20061;-91
2023/07/02 21:54:27;;;;;;;15.63;10.80;;;;;;;;;;8267255;28;20062;-88
2023/07/02 21:58:30;;;;;;;15.50;9.88;;;;;;;;;;8252099;28;20152;-91
2023/07/02 22:02:33;;;;;;;16.95;9.52;;;;;;;;;;8249261;28;20132;-92
2023/07/02 22:06:36;;;;;;;16.88;10.25;;;;;;;;;;8266801;28;20081;-92
2023/07/02 22:10:40;;;;;;;16.75;10.32;;;;;;;;;;8253977;28;20081;-91
2023/07/02 22:14:43;;;;;;;20.92;10.98;;;;;;;;;;8249281;28;20459;-91
2023/07/02 22:18:46;;;;;;;18.48;11.27;;;;;;;;;;8266773;28;20074;-91
2023/07/02 22:22:49;;;;;;;16.30;10.95;;;;;;;;;;8240779;28;20493;-91
2023/07/02 22:26:54;;;;;;;14.38;9.80;;;;;;;;;;8267103;28;20533;-91
2023/07/02 22:30:57;;;;;;;15.57;10.10;;;;;;;;;;8266567;28;20133;-92
2023/07/02 22:35:00;;;;;;;18.55;9.90;;;;;;;;;;8253809;28;20145;-91
2023/07/02 22:39:03;;;;;;;15.25;9.98;;;;;;;;;;8267010;28;20141;-92
2023/07/02 22:43:07;;;;;;;16.48;9.55;;;;;;;;;;8258130;28;20137;-92
2023/07/02 22:47:10;;;;;;;19.45;9.82;;;;;;;;;;8262766;28;20051;-93
2023/07/02 22:51:13;;;;;;;15.18;10.18;;;;;;;;;;8253813;28;20073;-94
2023/07/02 22:55:16;;;;;;;20.42;11.50;;;;;;;;;;8266691;28;20129;-92
2023/07/02 22:59:20;;;;;;;15.13;10.05;;;;;;;;;;8267147;28;20105;-93
2023/07/02 23:03:23;;;;;;;14.68;9.20;;;;;;;;;;8266835;28;20474;-93
2023/07/02 23:07:26;;;;;;;15.02;9.95;;;;;;;;;;8266533;28;20049;-93
2023/07/02 23:11:29;;;;;;;19.52;10.70;;;;;;;;;;8240320;28;20062;-93
2023/07/02 23:15:33;;;;;;;16.48;10.25;;;;;;;;;;8253526;28;20506;-92
2023/07/02 23:19:36;;;;;;;16.20;9.70;;;;;;;;;;8266166;28;20483;-93
2023/07/02 23:23:42;;;;;;;16.30;9.80;;;;;;;;;;8266083;28;20142;-93
2023/07/02 23:27:46;;;;;;;14.60;9.27;;;;;;;;;;8266484;28;20058;-93
2023/07/02 23:31:51;;;;;;;13.45;9.07;;;;;;;;;;8266013;28;20072;-92
2023/07/02 23:35:59;;;;;;;20.02;10.35;;;;;;;;;;8256157;28;20410;-94
2023/07/02 23:40:03;;;;;;;18.67;11.23;;;;;;;;;;8271942;28;20082;-94
2023/07/02 23:44:06;;;;;;;19.83;12.02;;;;;;;;;;8271598;28;20074;-94
2023/07/02 23:48:11;;;;;;;19.98;11.80;;;;;;;;;;8264634;28;20457;-94
2023/07/02 23:52:14;;;;;;;14.32;9.07;;;;;;;;;;8263356;28;20383;-92
2023/07/02 23:56:17;;;;;;;14.75;9.32;;;;;;;;;;8259944;28;20462;-89
